sensor_id;sensor_type;location;lat;lon;timestamp;pressure;altitude;pressure_sealevel;temperature;humidity
73422;BME280;61637;47.760;-122.022;2022-12-18T00:00:01;101930.339;;;0.3;unknown
73422;BME280;61637;47.760;-122.022;2022-12-18T00:02:01;101930.339;;;0.3;unknown
73422;BME280;61637;47.760;-122.022;2022-12-18T00:04:01;101930.339;;;0.3;unknown
73422;BME280;61637;47.760;-122.022;2022-12-18T00:06:01;101930.339;;;0.3;unknown
73422;BME280;61637;47.760;-122.022;2022-12-18T00:08:01;101930.339;;;0.3;unknown
73422;BME280;61637;47.760;-122.022;2022-12-18T00:10:01;101930.339;;;0.3;unknown
73422;BME280;61637;47.760;-122.022;2022-12-18T00:12:01;101930.339;;;0.2;unknown
73422;BME280;61637;47.760;-122.022;2022-12-18T00:14:01;101930.339;;;0.3;unknown
73422;BME280;61637;47.760;-122.022;2022-12-18T00:16:01;101930.339;;;0.3;unknown
73422;BME280;61637;47.760;-122.022;2022-12-18T00:18:01;101930.339;;;0.3;unknown
73422;BME280;61637;47.760;-122.022;2022-12-18T00:20:01;101930.339;;;0.3;unknown
73422;BME280;61637;47.760;-122.022;2022-12-18T00:22:01;101930.339;;;0.3;unknown
73422;BME280;61637;47.760;-122.022;2022-12-18T00:24:01;101930.339;;;0.3;unknown
73422;BME280;61637;47.760;-122.022;2022-12-18T00:26:01;101930.339;;;0.3;unknown
73422;BME280;61637;47.760;-122.022;2022-12-18T00:28:01;101930.339;;;0.3;unknown
73422;BME280;61637;47.760;-122.022;2022-12-18T00:30:02;101930.339;;;0.3;unknown
73422;BME280;61637;47.760;-122.022;2022-12-18T00:32:01;101930.339;;;0.3;unknown
73422;BME280;61637;47.760;-122.022;2022-12-18T00:34:01;101930.339;;;0.3;unknown
73422;BME280;61637;47.760;-122.022;2022-12-18T00:36:01;101930.339;;;0.3;unknown
73422;BME280;61637;47.760;-122.022;2022-12-18T00:38:01;101930.339;;;0.3;unknown
73422;BME280;61637;47.760;-122.022;2022-12-18T00:40:01;101930.339;;;0.3;unknown
73422;BME280;61637;47.760;-122.022;2022-12-18T00:42:01;101930.339;;;0.3;unknown
73422;BME280;61637;47.760;-122.022;2022-12-18T00:44:01;101930.339;;;0.3;unknown
73422;BME280;61637;47.760;-122.022;2022-12-18T00:46:01;101930.339;;;0.3;unknown
73422;BME280;61637;47.760;-122.022;2022-12-18T00:48:01;101930.339;;;0.3;unknown
73422;BME280;61637;47.760;-122.022;2022-12-18T00:50:01;101930.339;;;0.3;unknown
73422;BME280;61637;47.760;-122.022;2022-12-18T00:52:01;101930.339;;;0.3;unknown
73422;BME280;61637;47.760;-122.022;2022-12-18T00:54:01;101930.339;;;0.3;unknown
73422;BME280;61637;47.760;-122.022;2022-12-18T00:56:01;101930.339;;;0.3;unknown
73422;BME280;61637;47.760;-122.022;2022-12-18T00:58:01;101930.339;;;0.2;unknown
73422;BME280;61637;47.760;-122.022;2022-12-18T01:00:01;101930.339;;;0.2;unknown
73422;BME280;61637;47.760;-122.022;2022-12-18T01:02:01;101930.339;;;0.3;unknown
73422;BME280;61637;47.760;-122.022;2022-12-18T01:04:01;101930.339;;;0.3;unknown
73422;BME280;61637;47.760;-122.022;2022-12-18T01:06:05;101930.339;;;0.3;unknown
73422;BME280;61637;47.760;-122.022;2022-12-18T01:08:01;101930.339;;;0.3;unknown
73422;BME280;61637;47.760;-122.022;2022-12-18T01:10:01;101930.339;;;0.3;unknown
73422;BME280;61637;47.760;-122.022;2022-12-18T01:12:01;101930.339;;;0.3;unknown
73422;BME280;61637;47.760;-122.022;2022-12-18T01:14:01;101930.339;;;0.3;unknown
73422;BME280;61637;47.760;-122.022;2022-12-18T01:16:01;101930.339;;;0.3;unknown
73422;BME280;61637;47.760;-122.022;2022-12-18T01:18:01;101930.339;;;0.3;unknown
73422;BME280;61637;47.760;-122.022;2022-12-18T01:20:01;101930.339;;;0.3;unknown
73422;BME280;61637;47.760;-122.022;2022-12-18T01:22:01;101930.339;;;0.3;unknown
73422;BME280;61637;47.760;-122.022;2022-12-18T01:24:01;101930.339;;;0.4;unknown
73422;BME280;61637;47.760;-122.022;2022-12-18T01:26:04;101930.339;;;0.4;unknown
73422;BME280;61637;47.760;-122.022;2022-12-18T01:28:01;101930.339;;;0.4;unknown
73422;BME280;61637;47.760;-122.022;2022-12-18T01:30:01;101930.339;;;0.4;unknown
73422;BME280;61637;47.760;-122.022;2022-12-18T01:32:01;101930.339;;;0.4;unknown
73422;BME280;61637;47.760;-122.022;2022-12-18T01:34:01;101930.339;;;0.4;unknown
73422;BME280;61637;47.760;-122.022;2022-12-18T01:36:01;101930.339;;;0.4;unknown
73422;BME280;61637;47.760;-122.022;2022-12-18T01:38:01;101930.339;;;0.4;unknown
73422;BME280;61637;47.760;-122.022;2022-12-18T01:40:01;101930.339;;;0.5;unknown
73422;BME280;61637;47.760;-122.022;2022-12-18T01:42:02;101930.339;;;0.5;unknown
73422;BME280;61637;47.760;-122.022;2022-12-18T01:44:01;101930.339;;;0.5;unknown
73422;BME280;61637;47.760;-122.022;2022-12-18T01:46:01;101930.339;;;0.5;unknown
73422;BME280;61637;47.760;-122.022;2022-12-18T01:48:02;101930.339;;;0.5;unknown
73422;BME280;61637;47.760;-122.022;2022-12-18T01:50:01;101930.339;;;0.5;unknown
73422;BME280;61637;47.760;-122.022;2022-12-18T01:52:01;101591.7;;;0.5;unknown
73422;BME280;61637;47.760;-122.022;2022-12-18T01:54:01;101591.7;;;0.5;unknown
73422;BME280;61637;47.760;-122.022;2022-12-18T01:56:01;101591.7;;;0.6;unknown
73422;BME280;61637;47.760;-122.022;2022-12-18T01:58:01;101591.7;;;0.6;unknown
73422;BME280;61637;47.760;-122.022;2022-12-18T02:00:04;101591.7;;;0.6;unknown
73422;BME280;61637;47.760;-122.022;2022-12-18T02:02:01;101591.7;;;0.6;unknown
73422;BME280;61637;47.760;-122.022;2022-12-18T02:06:02;101591.7;;;0.7;unknown
73422;BME280;61637;47.760;-122.022;2022-12-18T02:08:02;101591.7;;;0.7;unknown
73422;BME280;61637;47.760;-122.022;2022-12-18T02:10:03;101591.7;;;0.7;unknown
73422;BME280;61637;47.760;-122.022;2022-12-18T02:12:03;101591.7;;;0.7;unknown
73422;BME280;61637;47.760;-122.022;2022-12-18T02:14:03;101591.7;;;0.7;unknown
73422;BME280;61637;47.760;-122.022;2022-12-18T02:16:02;101591.7;;;0.8;unknown
73422;BME280;61637;47.760;-122.022;2022-12-18T02:18:02;101591.7;;;0.8;unknown
73422;BME280;61637;47.760;-122.022;2022-12-18T02:20:05;101591.7;;;0.8;unknown
73422;BME280;61637;47.760;-122.022;2022-12-18T02:22:05;101591.7;;;0.8;unknown
73422;BME280;61637;47.760;-122.022;2022-12-18T02:24:04;101591.7;;;0.8;unknown
73422;BME280;61637;47.760;-122.022;2022-12-18T02:26:02;101591.7;;;0.8;unknown
73422;BME280;61637;47.760;-122.022;2022-12-18T02:28:02;101591.7;;;0.8;unknown
73422;BME280;61637;47.760;-122.022;2022-12-18T02:30:01;101591.7;;;0.8;unknown
73422;BME280;61637;47.760;-122.022;2022-12-18T02:32:01;101591.7;;;0.8;unknown
73422;BME280;61637;47.760;-122.022;2022-12-18T02:34:01;101591.7;;;0.8;unknown
73422;BME280;61637;47.760;-122.022;2022-12-18T02:36:01;101591.7;;;0.8;unknown
73422;BME280;61637;47.760;-122.022;2022-12-18T02:38:01;101591.7;;;0.8;unknown
73422;BME280;61637;47.760;-122.022;2022-12-18T02:40:01;101591.7;;;0.8;unknown
73422;BME280;61637;47.760;-122.022;2022-12-18T02:42:01;101591.7;;;0.9;unknown
73422;BME280;61637;47.760;-122.022;2022-12-18T02:44:07;101591.7;;;0.9;unknown
73422;BME280;61637;47.760;-122.022;2022-12-18T02:46:01;101591.7;;;0.9;unknown
73422;BME280;61637;47.760;-122.022;2022-12-18T02:48:01;101591.7;;;0.9;unknown
73422;BME280;61637;47.760;-122.022;2022-12-18T02:50:04;101591.7;;;0.9;unknown
73422;BME280;61637;47.760;-122.022;2022-12-18T02:52:03;101591.7;;;1.0;unknown
73422;BME280;61637;47.760;-122.022;2022-12-18T02:54:03;101591.7;;;1.1;unknown
73422;BME280;61637;47.760;-122.022;2022-12-18T02:56:02;101591.7;;;1.1;unknown
73422;BME280;61637;47.760;-122.022;2022-12-18T02:58:03;101591.7;;;1.1;unknown
73422;BME280;61637;47.760;-122.022;2022-12-18T03:00:03;101591.7;;;1.1;unknown
73422;BME280;61637;47.760;-122.022;2022-12-18T03:02:02;101591.7;;;1.1;unknown
73422;BME280;61637;47.760;-122.022;2022-12-18T03:04:01;101591.7;;;1.1;unknown
73422;BME280;61637;47.760;-122.022;2022-12-18T03:06:02;101591.7;;;1.1;unknown
73422;BME280;61637;47.760;-122.022;2022-12-18T03:08:02;101591.7;;;1.2;unknown
73422;BME280;61637;47.760;-122.022;2022-12-18T03:10:01;101591.7;;;1.2;unknown
73422;BME280;61637;47.760;-122.022;2022-12-18T03:12:03;101591.7;;;1.1;unknown
73422;BME280;61637;47.760;-122.022;2022-12-18T03:14:01;101591.7;;;1.2;unknown
73422;BME280;61637;47.760;-122.022;2022-12-18T03:16:01;101591.7;;;1.2;unknown
73422;BME280;61637;47.760;-122.022;2022-12-18T03:18:02;101591.7;;;1.2;unknown
73422;BME280;61637;47.760;-122.022;2022-12-18T03:20:03;101591.7;;;1.2;unknown
73422;BME280;61637;47.760;-122.022;2022-12-18T03:22:01;101591.7;;;1.2;unknown
73422;BME280;61637;47.760;-122.022;2022-12-18T03:24:01;101591.7;;;1.2;unknown
73422;BME280;61637;47.760;-122.022;2022-12-18T03:26:03;101591.7;;;1.2;unknown
73422;BME280;61637;47.760;-122.022;2022-12-18T03:28:01;101591.7;;;1.2;unknown
73422;BME280;61637;47.760;-122.022;2022-12-18T03:30:02;101591.7;;;1.2;unknown
73422;BME280;61637;47.760;-122.022;2022-12-18T03:32:02;101591.7;;;1.2;unknown
73422;BME280;61637;47.760;-122.022;2022-12-18T03:34:02;101591.7;;;1.2;unknown
73422;BME280;61637;47.760;-122.022;2022-12-18T03:36:01;101591.7;;;1.2;unknown
73422;BME280;61637;47.760;-122.022;2022-12-18T03:38:01;101591.7;;;1.2;unknown
73422;BME280;61637;47.760;-122.022;2022-12-18T03:40:01;101591.7;;;1.2;unknown
73422;BME280;61637;47.760;-122.022;2022-12-18T03:42:02;101591.7;;;1.2;unknown
73422;BME280;61637;47.760;-122.022;2022-12-18T03:44:02;101591.7;;;1.2;unknown
73422;BME280;61637;47.760;-122.022;2022-12-18T03:46:02;101591.7;;;1.2;unknown
73422;BME280;61637;47.760;-122.022;2022-12-18T03:48:01;101591.7;;;1.2;unknown
73422;BME280;61637;47.760;-122.022;2022-12-18T03:50:02;101591.7;;;1.2;unknown
73422;BME280;61637;47.760;-122.022;2022-12-18T03:52:02;101591.7;;;1.1;unknown
73422;BME280;61637;47.760;-122.022;2022-12-18T03:54:01;101591.7;;;1.1;unknown
73422;BME280;61637;47.760;-122.022;2022-12-18T03:56:01;101591.7;;;1.1;unknown
73422;BME280;61637;47.760;-122.022;2022-12-18T03:58:01;101591.7;;;1.1;unknown
73422;BME280;61637;47.760;-122.022;2022-12-18T04:00:04;101591.7;;;1.1;unknown
73422;BME280;61637;47.760;-122.022;2022-12-18T04:02:01;101591.7;;;1.1;unknown
73422;BME280;61637;47.760;-122.022;2022-12-18T04:04:01;101591.7;;;1.1;unknown
73422;BME280;61637;47.760;-122.022;2022-12-18T04:06:01;101591.7;;;1.0;unknown
73422;BME280;61637;47.760;-122.022;2022-12-18T04:08:01;101591.7;;;0.9;unknown
73422;BME280;61637;47.760;-122.022;2022-12-18T04:10:01;101591.7;;;1.0;unknown
73422;BME280;61637;47.760;-122.022;2022-12-18T04:12:01;101591.7;;;0.9;unknown
73422;BME280;61637;47.760;-122.022;2022-12-18T04:14:01;101591.7;;;0.9;unknown
73422;BME280;61637;47.760;-122.022;2022-12-18T04:16:01;101591.7;;;0.9;unknown
73422;BME280;61637;47.760;-122.022;2022-12-18T04:18:01;101591.7;;;0.9;unknown
73422;BME280;61637;47.760;-122.022;2022-12-18T04:20:01;101591.7;;;1.0;unknown
73422;BME280;61637;47.760;-122.022;2022-12-18T04:22:01;101591.7;;;1.1;unknown
73422;BME280;61637;47.760;-122.022;2022-12-18T04:24:01;101591.7;;;1.1;unknown
73422;BME280;61637;47.760;-122.022;2022-12-18T04:26:01;101591.7;;;1.1;unknown
73422;BME280;61637;47.760;-122.022;2022-12-18T04:28:01;101591.7;;;1.1;unknown
73422;BME280;61637;47.760;-122.022;2022-12-18T04:30:01;101591.7;;;1.1;unknown
73422;BME280;61637;47.760;-122.022;2022-12-18T04:32:01;101591.7;;;1.1;unknown
73422;BME280;61637;47.760;-122.022;2022-12-18T04:34:01;101591.7;;;1.1;unknown
73422;BME280;61637;47.760;-122.022;2022-12-18T04:36:01;101591.7;;;1.1;unknown
73422;BME280;61637;47.760;-122.022;2022-12-18T04:38:01;101591.7;;;1.1;unknown
73422;BME280;61637;47.760;-122.022;2022-12-18T04:40:01;101591.7;;;1.1;unknown
73422;BME280;61637;47.760;-122.022;2022-12-18T04:42:01;101591.7;;;1.2;unknown
73422;BME280;61637;47.760;-122.022;2022-12-18T04:44:01;101591.7;;;1.2;unknown
73422;BME280;61637;47.760;-122.022;2022-12-18T04:46:01;101591.7;;;1.3;unknown
73422;BME280;61637;47.760;-122.022;2022-12-18T04:48:01;101591.7;;;1.3;unknown
73422;BME280;61637;47.760;-122.022;2022-12-18T04:50:01;101591.7;;;1.3;unknown
73422;BME280;61637;47.760;-122.022;2022-12-18T04:52:01;101591.7;;;1.4;unknown
73422;BME280;61637;47.760;-122.022;2022-12-18T04:54:01;101591.7;;;1.4;unknown
73422;BME280;61637;47.760;-122.022;2022-12-18T04:56:02;101591.7;;;1.4;unknown
73422;BME280;61637;47.760;-122.022;2022-12-18T04:58:01;101591.7;;;1.4;unknown
73422;BME280;61637;47.760;-122.022;2022-12-18T05:00:02;101591.7;;;1.4;unknown
73422;BME280;61637;47.760;-122.022;2022-12-18T05:02:01;101591.7;;;1.4;unknown
73422;BME280;61637;47.760;-122.022;2022-12-18T05:04:01;101591.7;;;1.4;unknown
73422;BME280;61637;47.760;-122.022;2022-12-18T05:06:01;101591.7;;;1.4;unknown
73422;BME280;61637;47.760;-122.022;2022-12-18T05:08:01;101591.7;;;1.4;unknown
73422;BME280;61637;47.760;-122.022;2022-12-18T05:10:01;101591.7;;;1.4;unknown
73422;BME280;61637;47.760;-122.022;2022-12-18T05:12:01;101591.7;;;1.4;unknown
73422;BME280;61637;47.760;-122.022;2022-12-18T05:14:01;101591.7;;;1.5;unknown
73422;BME280;61637;47.760;-122.022;2022-12-18T05:16:01;101591.7;;;1.5;unknown
73422;BME280;61637;47.760;-122.022;2022-12-18T05:18:01;101591.7;;;1.5;unknown
73422;BME280;61637;47.760;-122.022;2022-12-18T05:20:01;101591.7;;;1.4;unknown
73422;BME280;61637;47.760;-122.022;2022-12-18T05:22:01;101591.7;;;1.5;unknown
73422;BME280;61637;47.760;-122.022;2022-12-18T05:24:01;101591.7;;;1.6;unknown
73422;BME280;61637;47.760;-122.022;2022-12-18T05:26:01;101591.7;;;1.5;unknown
73422;BME280;61637;47.760;-122.022;2022-12-18T05:28:01;101591.7;;;1.6;unknown
73422;BME280;61637;47.760;-122.022;2022-12-18T05:30:01;101591.7;;;1.6;unknown
73422;BME280;61637;47.760;-122.022;2022-12-18T05:32:01;101591.7;;;1.6;unknown
73422;BME280;61637;47.760;-122.022;2022-12-18T05:34:01;101591.7;;;1.6;unknown
73422;BME280;61637;47.760;-122.022;2022-12-18T05:36:01;101591.7;;;1.7;unknown
73422;BME280;61637;47.760;-122.022;2022-12-18T05:38:01;101591.7;;;1.6;unknown
73422;BME280;61637;47.760;-122.022;2022-12-18T05:40:01;101591.7;;;1.7;unknown
73422;BME280;61637;47.760;-122.022;2022-12-18T05:42:01;101591.7;;;1.7;unknown
73422;BME280;61637;47.760;-122.022;2022-12-18T05:44:01;101591.7;;;1.7;unknown
73422;BME280;61637;47.760;-122.022;2022-12-18T05:46:03;101591.7;;;1.7;unknown
73422;BME280;61637;47.760;-122.022;2022-12-18T05:48:01;101591.7;;;1.8;unknown
73422;BME280;61637;47.760;-122.022;2022-12-18T05:50:01;101591.7;;;1.8;unknown
73422;BME280;61637;47.760;-122.022;2022-12-18T05:52:01;101591.7;;;1.7;unknown
73422;BME280;61637;47.760;-122.022;2022-12-18T05:54:01;101591.7;;;1.7;unknown
73422;BME280;61637;47.760;-122.022;2022-12-18T05:56:01;101591.7;;;1.7;unknown
73422;BME280;61637;47.760;-122.022;2022-12-18T05:58:01;101591.7;;;1.7;unknown
73422;BME280;61637;47.760;-122.022;2022-12-18T06:00:01;101591.7;;;1.8;unknown
73422;BME280;61637;47.760;-122.022;2022-12-18T06:02:01;101591.7;;;1.7;unknown
73422;BME280;61637;47.760;-122.022;2022-12-18T06:04:01;101591.7;;;1.7;unknown
73422;BME280;61637;47.760;-122.022;2022-12-18T06:06:01;101591.7;;;1.7;unknown
73422;BME280;61637;47.760;-122.022;2022-12-18T06:08:01;101591.7;;;1.7;unknown
73422;BME280;61637;47.760;-122.022;2022-12-18T06:10:01;101591.7;;;1.8;unknown
73422;BME280;61637;47.760;-122.022;2022-12-18T06:12:01;101591.7;;;1.7;unknown
73422;BME280;61637;47.760;-122.022;2022-12-18T06:14:01;101591.7;;;1.7;unknown
73422;BME280;61637;47.760;-122.022;2022-12-18T06:16:02;101591.7;;;1.7;unknown
73422;BME280;61637;47.760;-122.022;2022-12-18T06:18:01;101591.7;;;1.7;unknown
73422;BME280;61637;47.760;-122.022;2022-12-18T06:20:01;101591.7;;;1.7;unknown
73422;BME280;61637;47.760;-122.022;2022-12-18T06:22:01;101591.7;;;1.7;unknown
73422;BME280;61637;47.760;-122.022;2022-12-18T06:24:01;101591.7;;;1.7;unknown
73422;BME280;61637;47.760;-122.022;2022-12-18T06:26:03;101591.7;;;1.7;unknown
73422;BME280;61637;47.760;-122.022;2022-12-18T06:28:01;101591.7;;;1.7;unknown
73422;BME280;61637;47.760;-122.022;2022-12-18T06:30:01;101591.7;;;1.7;unknown
73422;BME280;61637;47.760;-122.022;2022-12-18T06:32:01;101591.7;;;1.7;unknown
73422;BME280;61637;47.760;-122.022;2022-12-18T06:34:02;101591.7;;;1.7;unknown
73422;BME280;61637;47.760;-122.022;2022-12-18T06:36:02;101591.7;;;1.7;unknown
73422;BME280;61637;47.760;-122.022;2022-12-18T06:38:01;101591.7;;;1.7;unknown
73422;BME280;61637;47.760;-122.022;2022-12-18T06:40:01;101591.7;;;1.7;unknown
73422;BME280;61637;47.760;-122.022;2022-12-18T06:42:01;101591.7;;;1.7;unknown
73422;BME280;61637;47.760;-122.022;2022-12-18T06:44:01;101591.7;;;1.7;unknown
73422;BME280;61637;47.760;-122.022;2022-12-18T06:46:01;101591.7;;;1.8;unknown
73422;BME280;61637;47.760;-122.022;2022-12-18T06:48:01;101591.7;;;1.7;unknown
73422;BME280;61637;47.760;-122.022;2022-12-18T06:50:01;101591.7;;;1.8;unknown
73422;BME280;61637;47.760;-122.022;2022-12-18T06:52:01;101591.7;;;1.8;unknown
73422;BME280;61637;47.760;-122.022;2022-12-18T06:54:01;101591.7;;;1.8;unknown
73422;BME280;61637;47.760;-122.022;2022-12-18T06:56:01;101591.7;;;1.8;unknown
73422;BME280;61637;47.760;-122.022;2022-12-18T06:58:01;101591.7;;;1.8;unknown
73422;BME280;61637;47.760;-122.022;2022-12-18T07:00:01;101591.7;;;1.8;unknown
73422;BME280;61637;47.760;-122.022;2022-12-18T07:02:01;101591.7;;;1.9;unknown
73422;BME280;61637;47.760;-122.022;2022-12-18T07:04:01;101591.7;;;1.9;unknown
73422;BME280;61637;47.760;-122.022;2022-12-18T07:06:01;101591.7;;;1.8;unknown
73422;BME280;61637;47.760;-122.022;2022-12-18T07:08:01;101591.7;;;1.8;unknown
73422;BME280;61637;47.760;-122.022;2022-12-18T07:10:01;101591.7;;;1.8;unknown
73422;BME280;61637;47.760;-122.022;2022-12-18T07:12:01;101591.7;;;1.8;unknown
73422;BME280;61637;47.760;-122.022;2022-12-18T07:14:01;101591.7;;;1.8;unknown
73422;BME280;61637;47.760;-122.022;2022-12-18T07:16:05;101591.7;;;1.9;unknown
73422;BME280;61637;47.760;-122.022;2022-12-18T07:18:01;101591.7;;;1.9;unknown
73422;BME280;61637;47.760;-122.022;2022-12-18T07:20:01;101591.7;;;1.9;unknown
73422;BME280;61637;47.760;-122.022;2022-12-18T07:22:01;101591.7;;;1.9;unknown
73422;BME280;61637;47.760;-122.022;2022-12-18T07:24:01;101591.7;;;2.0;unknown
73422;BME280;61637;47.760;-122.022;2022-12-18T07:26:01;101591.7;;;2.0;unknown
73422;BME280;61637;47.760;-122.022;2022-12-18T07:28:01;101591.7;;;2.0;unknown
73422;BME280;61637;47.760;-122.022;2022-12-18T07:30:01;101591.7;;;2.0;unknown
73422;BME280;61637;47.760;-122.022;2022-12-18T07:32:01;101591.7;;;2.1;unknown
73422;BME280;61637;47.760;-122.022;2022-12-18T07:34:01;101591.7;;;2.1;unknown
73422;BME280;61637;47.760;-122.022;2022-12-18T07:36:01;101591.7;;;2.1;unknown
73422;BME280;61637;47.760;-122.022;2022-12-18T07:38:01;101591.7;;;2.1;unknown
73422;BME280;61637;47.760;-122.022;2022-12-18T07:40:01;101591.7;;;2.1;unknown
73422;BME280;61637;47.760;-122.022;2022-12-18T07:42:01;101591.7;;;2.1;unknown
73422;BME280;61637;47.760;-122.022;2022-12-18T07:44:01;101591.7;;;2.1;unknown
73422;BME280;61637;47.760;-122.022;2022-12-18T07:46:01;101591.7;;;2.1;unknown
73422;BME280;61637;47.760;-122.022;2022-12-18T07:48:01;101591.7;;;2.0;unknown
73422;BME280;61637;47.760;-122.022;2022-12-18T07:50:01;101591.7;;;2.1;unknown
73422;BME280;61637;47.760;-122.022;2022-12-18T07:52:01;101591.7;;;2.1;unknown
73422;BME280;61637;47.760;-122.022;2022-12-18T07:54:01;101591.7;;;2.0;unknown
73422;BME280;61637;47.760;-122.022;2022-12-18T07:56:01;101591.7;;;2.0;unknown
73422;BME280;61637;47.760;-122.022;2022-12-18T07:58:01;101591.7;;;1.9;unknown
73422;BME280;61637;47.760;-122.022;2022-12-18T08:00:01;101591.7;;;1.9;unknown
73422;BME280;61637;47.760;-122.022;2022-12-18T08:02:01;101591.7;;;1.9;unknown
73422;BME280;61637;47.760;-122.022;2022-12-18T08:04:01;101591.7;;;1.9;unknown
73422;BME280;61637;47.760;-122.022;2022-12-18T08:06:01;101591.7;;;1.9;unknown
73422;BME280;61637;47.760;-122.022;2022-12-18T08:08:01;101591.7;;;1.9;unknown
73422;BME280;61637;47.760;-122.022;2022-12-18T08:10:01;101591.7;;;1.9;unknown
73422;BME280;61637;47.760;-122.022;2022-12-18T08:12:01;101591.7;;;1.9;unknown
73422;BME280;61637;47.760;-122.022;2022-12-18T08:14:01;101591.7;;;1.9;unknown
73422;BME280;61637;47.760;-122.022;2022-12-18T08:16:02;101591.7;;;1.9;unknown
73422;BME280;61637;47.760;-122.022;2022-12-18T08:18:01;101591.7;;;1.9;unknown
73422;BME280;61637;47.760;-122.022;2022-12-18T08:20:01;101591.7;;;1.9;unknown
73422;BME280;61637;47.760;-122.022;2022-12-18T08:22:01;101591.7;;;1.9;unknown
73422;BME280;61637;47.760;-122.022;2022-12-18T08:24:01;101591.7;;;2.0;unknown
73422;BME280;61637;47.760;-122.022;2022-12-18T08:26:01;101591.7;;;1.9;unknown
73422;BME280;61637;47.760;-122.022;2022-12-18T08:28:01;101591.7;;;2.1;unknown
73422;BME280;61637;47.760;-122.022;2022-12-18T08:30:01;101591.7;;;2.1;unknown
73422;BME280;61637;47.760;-122.022;2022-12-18T08:32:01;101591.7;;;2.1;unknown
73422;BME280;61637;47.760;-122.022;2022-12-18T08:34:01;101591.7;;;2.1;unknown
73422;BME280;61637;47.760;-122.022;2022-12-18T08:36:01;101591.7;;;2.2;unknown
73422;BME280;61637;47.760;-122.022;2022-12-18T08:38:01;101591.7;;;2.1;unknown
73422;BME280;61637;47.760;-122.022;2022-12-18T08:40:01;101591.7;;;2.1;unknown
73422;BME280;61637;47.760;-122.022;2022-12-18T08:42:01;101591.7;;;2.1;unknown
73422;BME280;61637;47.760;-122.022;2022-12-18T08:44:01;101591.7;;;2.2;unknown
73422;BME280;61637;47.760;-122.022;2022-12-18T08:46:01;101591.7;;;2.2;unknown
73422;BME280;61637;47.760;-122.022;2022-12-18T08:48:01;101591.7;;;2.2;unknown
73422;BME280;61637;47.760;-122.022;2022-12-18T08:50:01;101591.7;;;2.2;unknown
73422;BME280;61637;47.760;-122.022;2022-12-18T08:52:01;101591.7;;;2.3;unknown
73422;BME280;61637;47.760;-122.022;2022-12-18T08:54:01;101591.7;;;2.3;unknown
73422;BME280;61637;47.760;-122.022;2022-12-18T08:56:01;101591.7;;;2.3;unknown
73422;BME280;61637;47.760;-122.022;2022-12-18T08:58:01;101591.7;;;2.3;unknown
73422;BME280;61637;47.760;-122.022;2022-12-18T09:00:01;101591.7;;;2.3;unknown
73422;BME280;61637;47.760;-122.022;2022-12-18T09:02:01;101591.7;;;2.4;unknown
73422;BME280;61637;47.760;-122.022;2022-12-18T09:04:01;101591.7;;;2.4;unknown
73422;BME280;61637;47.760;-122.022;2022-12-18T09:06:01;101591.7;;;2.4;unknown
73422;BME280;61637;47.760;-122.022;2022-12-18T09:08:01;101591.7;;;2.4;unknown
73422;BME280;61637;47.760;-122.022;2022-12-18T09:10:01;101591.7;;;2.4;unknown
73422;BME280;61637;47.760;-122.022;2022-12-18T09:12:01;101591.7;;;2.5;unknown
73422;BME280;61637;47.760;-122.022;2022-12-18T09:14:01;101591.7;;;2.5;unknown
73422;BME280;61637;47.760;-122.022;2022-12-18T09:16:02;101591.7;;;2.5;unknown
73422;BME280;61637;47.760;-122.022;2022-12-18T09:18:01;101591.7;;;2.5;unknown
73422;BME280;61637;47.760;-122.022;2022-12-18T09:20:01;101591.7;;;2.5;unknown
73422;BME280;61637;47.760;-122.022;2022-12-18T09:22:01;101591.7;;;2.5;unknown
73422;BME280;61637;47.760;-122.022;2022-12-18T09:24:01;101591.7;;;2.5;unknown
73422;BME280;61637;47.760;-122.022;2022-12-18T09:26:01;101591.7;;;2.4;unknown
73422;BME280;61637;47.760;-122.022;2022-12-18T09:28:01;101591.7;;;2.4;unknown
73422;BME280;61637;47.760;-122.022;2022-12-18T09:30:01;101591.7;;;2.4;unknown
73422;BME280;61637;47.760;-122.022;2022-12-18T09:32:01;101591.7;;;2.4;unknown
73422;BME280;61637;47.760;-122.022;2022-12-18T09:34:01;101591.7;;;2.4;unknown
73422;BME280;61637;47.760;-122.022;2022-12-18T09:36:03;101591.7;;;2.4;unknown
73422;BME280;61637;47.760;-122.022;2022-12-18T09:38:01;101591.7;;;2.4;unknown
73422;BME280;61637;47.760;-122.022;2022-12-18T09:40:01;101591.7;;;2.4;unknown
73422;BME280;61637;47.760;-122.022;2022-12-18T09:42:01;101591.7;;;2.5;unknown
73422;BME280;61637;47.760;-122.022;2022-12-18T09:44:01;101591.7;;;2.5;unknown
73422;BME280;61637;47.760;-122.022;2022-12-18T09:46:02;101591.7;;;2.6;unknown
73422;BME280;61637;47.760;-122.022;2022-12-18T09:48:01;101591.7;;;2.6;unknown
73422;BME280;61637;47.760;-122.022;2022-12-18T09:50:02;101591.7;;;2.5;unknown
73422;BME280;61637;47.760;-122.022;2022-12-18T09:52:02;101591.7;;;2.5;unknown
73422;BME280;61637;47.760;-122.022;2022-12-18T09:54:01;101591.7;;;2.4;unknown
73422;BME280;61637;47.760;-122.022;2022-12-18T09:56:01;101591.7;;;2.4;unknown
73422;BME280;61637;47.760;-122.022;2022-12-18T09:58:02;101591.7;;;2.4;unknown
73422;BME280;61637;47.760;-122.022;2022-12-18T10:00:03;101591.7;;;2.4;unknown
73422;BME280;61637;47.760;-122.022;2022-12-18T10:02:05;101591.7;;;2.3;unknown
73422;BME280;61637;47.760;-122.022;2022-12-18T10:04:01;101591.7;;;2.3;unknown
73422;BME280;61637;47.760;-122.022;2022-12-18T10:06:02;101591.7;;;2.3;unknown
73422;BME280;61637;47.760;-122.022;2022-12-18T10:08:02;101591.7;;;2.3;unknown